Time;durP1;ratioP1;P1;durP2;ratioP2;P2;SDS_P1;SDS_P2;PMS_P1;PMS_P2;Temp;Humidity;BMP_temperature;BMP_pressure;BME280_temperature;BME280_humidity;BME280_pressure;Samples;Min_cycle;Max_cycle;Signal;HPM_P1;HPM_P2
2021/01/25 00:00:16;;;;;;;2.40;1.17;;;3.90;99.90;;;;;;5062545;28;20048;-51
2021/01/25 00:02:42;;;;;;;2.75;1.20;;;3.90;99.90;;;;;;5063990;28;20059;-49
2021/01/25 00:05:09;;;;;;;1.42;1.00;;;3.90;99.90;;;;;;5063301;28;20028;-49
2021/01/25 00:07:35;;;;;;;2.38;1.35;;;3.90;99.90;;;;;;5063489;28;20028;-51
2021/01/25 00:10:06;;;;;;;1.85;1.00;;;4.00;99.90;;;;;;5063684;28;20029;-53
2021/01/25 00:12:32;;;;;;;2.15;1.13;;;4.00;99.90;;;;;;5063481;28;20032;-53
2021/01/25 00:14:57;;;;;;;2.20;1.17;;;4.00;99.90;;;;;;5063742;28;20032;-52
2021/01/25 00:17:24;;;;;;;1.73;1.00;;;4.00;99.90;;;;;;5063912;28;20033;-54
2021/01/25 00:19:49;;;;;;;2.20;1.10;;;4.00;99.90;;;;;;5063224;28;20025;-51
2021/01/25 00:22:15;;;;;;;4.32;1.13;;;4.10;99.90;;;;;;5063617;28;20486;-52
2021/01/25 00:24:41;;;;;;;1.83;0.98;;;4.20;99.90;;;;;;5063881;28;20029;-53
2021/01/25 00:27:09;;;;;;;2.35;1.40;;;4.20;99.90;;;;;;5064094;28;20035;-52
2021/01/25 00:29:35;;;;;;;2.05;1.02;;;4.10;99.90;;;;;;5063491;28;20064;-52
2021/01/25 00:32:00;;;;;;;1.98;1.10;;;4.10;99.90;;;;;;5061922;28;20035;-54
2021/01/25 00:34:26;;;;;;;2.95;1.40;;;4.10;99.90;;;;;;5064356;28;20032;-53
2021/01/25 00:36:53;;;;;;;1.80;0.93;;;4.00;99.90;;;;;;5063734;28;20040;-55
2021/01/25 00:39:19;;;;;;;1.90;1.17;;;4.10;99.90;;;;;;5062111;28;20432;-53
2021/01/25 00:41:44;;;;;;;2.95;1.20;;;4.00;99.90;;;;;;5063412;28;20207;-53
2021/01/25 00:44:10;;;;;;;2.85;1.48;;;4.00;99.90;;;;;;5062670;28;20051;-53
2021/01/25 00:46:36;;;;;;;1.20;1.10;;;4.00;99.90;;;;;;5063573;28;20031;-50
2021/01/25 00:49:01;;;;;;;1.42;1.05;;;4.00;99.90;;;;;;5062108;28;20039;-51
2021/01/25 00:51:27;;;;;;;2.25;1.10;;;3.90;99.90;;;;;;5062904;28;20031;-51
2021/01/25 00:53:52;;;;;;;3.13;1.42;;;3.90;99.90;;;;;;5064348;28;20410;-48
2021/01/25 00:56:19;;;;;;;1.33;1.00;;;3.90;99.90;;;;;;5064403;28;20020;-50
2021/01/25 00:58:45;;;;;;;3.03;1.17;;;3.90;99.90;;;;;;5065973;28;20069;-51
2021/01/25 01:01:12;;;;;;;3.50;1.00;;;3.90;99.90;;;;;;5067335;28;20020;-52
2021/01/25 01:03:37;;;;;;;1.75;0.77;;;3.90;99.90;;;;;;5067897;28;20029;-53
2021/01/25 01:06:03;;;;;;;1.50;1.10;;;3.90;99.90;;;;;;5067257;28;20465;-51
2021/01/25 01:08:29;;;;;;;2.17;1.13;;;3.90;99.90;;;;;;5048993;28;20056;-49
2021/01/25 01:10:54;;;;;;;1.88;0.93;;;3.90;99.90;;;;;;5066977;28;20104;-53
2021/01/25 01:13:20;;;;;;;3.05;1.20;;;3.90;99.90;;;;;;5068115;28;20104;-51
2021/01/25 01:15:46;;;;;;;2.40;1.40;;;3.90;99.90;;;;;;5067141;28;20021;-51
2021/01/25 01:18:12;;;;;;;1.75;1.10;;;3.90;99.90;;;;;;5067060;28;20275;-52
2021/01/25 01:20:38;;;;;;;1.60;1.20;;;3.90;99.90;;;;;;5067242;28;20588;-51
2021/01/25 01:23:04;;;;;;;1.70;1.20;;;3.90;99.90;;;;;;5067162;28;20094;-52
2021/01/25 01:25:30;;;;;;;1.63;0.95;;;3.90;99.90;;;;;;5049291;28;20372;-52
2021/01/25 01:27:55;;;;;;;1.40;1.10;;;3.90;99.90;;;;;;5067199;28;20032;-52
2021/01/25 01:30:21;;;;;;;2.85;1.40;;;3.90;99.90;;;;;;5067644;28;20103;-49
2021/01/25 01:32:47;;;;;;;1.65;1.00;;;3.90;99.90;;;;;;5066563;28;20037;-48
2021/01/25 01:35:13;;;;;;;2.08;1.13;;;4.00;99.90;;;;;;5067048;28;20028;-52
2021/01/25 01:37:39;;;;;;;1.77;1.20;;;4.00;99.90;;;;;;5066912;28;20040;-51
2021/01/25 01:40:10;;;;;;;1.45;1.00;;;4.00;99.90;;;;;;5066696;28;20029;-52
2021/01/25 01:42:35;;;;;;;1.55;1.27;;;3.90;99.90;;;;;;5066750;28;20062;-52
2021/01/25 01:45:03;;;;;;;3.13;1.33;;;4.00;99.90;;;;;;5066705;28;20052;-50
2021/01/25 01:47:32;;;;;;;3.17;1.10;;;3.90;99.90;;;;;;5066615;28;20033;-51
2021/01/25 01:50:00;;;;;;;1.67;1.08;;;3.90;99.90;;;;;;5065545;28;20347;-49
2021/01/25 01:52:25;;;;;;;2.20;1.10;;;4.00;99.90;;;;;;5066898;28;20051;-52
2021/01/25 01:54:56;;;;;;;1.63;1.00;;;3.90;99.90;;;;;;5067062;28;20021;-49
2021/01/25 01:57:23;;;;;;;1.48;1.02;;;4.00;99.90;;;;;;5067338;28;20032;-50
2021/01/25 01:59:49;;;;;;;1.48;0.90;;;4.00;99.90;;;;;;5063944;28;20044;-51
2021/01/25 02:02:15;;;;;;;0.90;0.60;;;3.90;99.90;;;;;;5066822;28;20025;-49
2021/01/25 02:04:44;;;;;;;1.10;0.82;;;4.00;99.90;;;;;;5066815;28;20542;-49
2021/01/25 02:07:11;;;;;;;1.77;0.88;;;4.00;99.90;;;;;;5066481;28;20132;-52
2021/01/25 02:09:40;;;;;;;1.17;0.82;;;4.10;99.90;;;;;;5066219;28;20024;-51
2021/01/25 02:12:07;;;;;;;2.03;1.10;;;4.10;99.90;;;;;;5066085;28;20020;-49
2021/01/25 02:14:35;;;;;;;1.40;1.15;;;4.10;99.90;;;;;;5066157;28;20111;-52
2021/01/25 02:17:01;;;;;;;2.58;1.35;;;4.10;99.90;;;;;;5065854;28;20037;-52
2021/01/25 02:19:41;;;;;;;3.20;1.50;;;4.10;99.90;;;;;;5066183;28;20403;-51
2021/01/25 02:22:29;;;;;;;3.22;1.50;;;4.10;99.90;;;;;;5065862;28;20512;-49
2021/01/25 02:25:01;;;;;;;2.75;1.40;;;4.10;99.90;;;;;;5065837;28;20021;-51
2021/01/25 02:27:31;;;;;;;3.33;1.40;;;3.80;99.90;;;;;;5066027;28;20029;-51
2021/01/25 02:29:58;;;;;;;2.50;1.30;;;3.80;99.90;;;;;;5065590;28;20020;-49
2021/01/25 02:32:24;;;;;;;0.88;0.65;;;3.70;99.90;;;;;;5065263;28;20025;-50
2021/01/25 02:34:50;;;;;;;2.10;0.63;;;3.80;99.90;;;;;;5065308;28;20082;-52
2021/01/25 02:37:16;;;;;;;0.52;0.50;;;3.70;99.90;;;;;;5064749;28;20020;-52
2021/01/25 02:39:45;;;;;;;1.30;0.63;;;3.60;99.90;;;;;;5065738;28;20513;-53
2021/01/25 02:42:12;;;;;;;0.75;0.50;;;3.50;99.90;;;;;;5065478;28;20047;-53
2021/01/25 02:44:39;;;;;;;0.80;0.45;;;3.60;99.90;;;;;;5065780;28;20440;-54
2021/01/25 02:47:06;;;;;;;1.20;0.68;;;3.60;99.90;;;;;;5064545;28;20123;-54
2021/01/25 02:49:32;;;;;;;1.10;0.73;;;3.60;99.90;;;;;;5064699;28;20048;-54
2021/01/25 02:51:58;;;;;;;0.70;0.60;;;3.70;99.90;;;;;;5065411;28;20036;-53
2021/01/25 02:54:24;;;;;;;1.60;0.80;;;3.70;99.90;;;;;;5065582;28;20039;-55
2021/01/25 02:56:49;;;;;;;1.90;1.00;;;3.70;99.90;;;;;;5065849;28;20056;-53
2021/01/25 02:59:17;;;;;;;1.85;1.00;;;3.60;99.90;;;;;;5065173;28;20028;-54
2021/01/25 03:01:45;;;;;;;1.17;0.82;;;3.70;99.90;;;;;;5064875;28;20036;-54
2021/01/25 03:04:10;;;;;;;1.60;0.95;;;3.70;99.90;;;;;;5065365;28;20020;-52
2021/01/25 03:06:37;;;;;;;0.70;0.50;;;3.70;99.90;;;;;;5065057;28;20282;-55
2021/01/25 03:09:03;;;;;;;1.20;0.80;;;3.80;99.90;;;;;;5064088;28;20028;-54
2021/01/25 03:11:30;;;;;;;1.17;0.75;;;3.80;99.90;;;;;;5065179;28;20409;-54
2021/01/25 03:14:08;;;;;;;2.22;0.95;;;3.70;99.90;;;;;;5064753;28;20441;-54
2021/01/25 03:16:34;;;;;;;1.10;0.80;;;3.80;99.90;;;;;;5064884;28;20028;-53
2021/01/25 03:19:00;;;;;;;1.30;0.70;;;3.80;99.90;;;;;;5064764;28;20025;-54
2021/01/25 03:21:26;;;;;;;1.73;0.60;;;3.70;99.90;;;;;;5064523;28;20538;-55
2021/01/25 03:23:52;;;;;;;1.63;0.85;;;3.90;99.90;;;;;;5065433;28;20032;-53
2021/01/25 03:26:18;;;;;;;1.45;0.73;;;3.80;99.90;;;;;;5064990;28;20034;-54
2021/01/25 03:28:45;;;;;;;0.60;0.60;;;3.80;99.90;;;;;;5064738;28;20036;-53
2021/01/25 03:31:11;;;;;;;0.85;0.60;;;3.80;99.90;;;;;;5064606;28;20067;-53
2021/01/25 03:33:37;;;;;;;1.25;0.60;;;3.90;99.90;;;;;;5064867;28;20048;-54
2021/01/25 03:36:02;;;;;;;0.98;0.60;;;3.90;99.90;;;;;;5064783;28;20034;-54
2021/01/25 03:38:28;;;;;;;0.90;0.63;;;3.80;99.90;;;;;;5064906;28;20036;-54
2021/01/25 03:40:54;;;;;;;1.77;0.80;;;3.80;99.90;;;;;;5064286;28;20028;-55
2021/01/25 03:43:19;;;;;;;1.02;0.52;;;3.90;99.90;;;;;;5065731;28;20098;-54
2021/01/25 03:45:46;;;;;;;1.40;0.68;;;3.90;99.90;;;;;;5064418;28;20036;-53
2021/01/25 03:48:12;;;;;;;0.93;0.57;;;4.00;99.90;;;;;;5063475;28;20028;-53
2021/01/25 03:50:38;;;;;;;1.02;0.70;;;4.00;99.90;;;;;;5064530;28;20032;-54
2021/01/25 03:53:04;;;;;;;1.10;0.68;;;4.10;99.90;;;;;;5064647;28;20028;-54
2021/01/25 03:55:30;;;;;;;1.65;1.00;;;3.90;99.90;;;;;;5064992;28;20036;-54
2021/01/25 03:57:56;;;;;;;1.63;1.10;;;4.00;99.90;;;;;;5064368;28;20029;-53
2021/01/25 04:00:22;;;;;;;7.10;2.75;;;4.10;99.90;;;;;;5064803;28;20579;-54
2021/01/25 04:02:47;;;;;;;8.20;3.30;;;4.10;99.90;;;;;;5064072;28;20031;-53
2021/01/25 04:05:13;;;;;;;5.85;2.40;;;4.10;99.90;;;;;;5065079;28;20696;-54
2021/01/25 04:07:42;;;;;;;5.13;2.30;;;4.10;99.90;;;;;;5064445;28;20037;-54
2021/01/25 04:10:08;;;;;;;4.75;2.00;;;4.20;99.90;;;;;;5064575;28;20040;-54
2021/01/25 04:12:35;;;;;;;2.85;1.60;;;4.10;99.90;;;;;;5064718;28;20583;-54
2021/01/25 04:15:01;;;;;;;1.48;1.10;;;4.20;99.90;;;;;;5063911;28;20032;-53
2021/01/25 04:17:26;;;;;;;2.63;1.27;;;4.10;99.90;;;;;;5064165;28;20031;-53
2021/01/25 04:19:52;;;;;;;2.00;1.00;;;4.00;99.90;;;;;;5064688;28;20048;-54
2021/01/25 04:22:17;;;;;;;2.17;1.00;;;4.00;99.90;;;;;;5064381;28;20028;-54
2021/01/25 04:24:44;;;;;;;0.80;0.60;;;4.00;99.90;;;;;;5064339;28;20583;-54
2021/01/25 04:27:13;;;;;;;0.88;0.70;;;4.00;99.90;;;;;;5063929;28;20063;-54
2021/01/25 04:29:39;;;;;;;2.50;1.23;;;4.00;99.90;;;;;;5064354;28;20530;-53
2021/01/25 04:32:05;;;;;;;0.88;0.70;;;4.00;99.90;;;;;;5064179;28;20031;-53
2021/01/25 04:34:32;;;;;;;1.63;0.88;;;4.00;99.90;;;;;;5068681;28;20461;-54
2021/01/25 04:36:59;;;;;;;1.58;0.73;;;3.90;99.90;;;;;;5067570;28;20482;-53
2021/01/25 04:39:24;;;;;;;1.25;0.60;;;4.00;99.90;;;;;;5067792;28;20033;-53
2021/01/25 04:41:50;;;;;;;0.60;0.60;;;4.00;99.90;;;;;;5067666;28;20558;-52
2021/01/25 04:44:17;;;;;;;1.23;0.85;;;4.00;99.90;;;;;;5049510;28;20116;-54
2021/01/25 04:46:46;;;;;;;0.77;0.52;;;4.10;99.90;;;;;;5067470;28;20059;-54
2021/01/25 04:49:15;;;;;;;0.68;0.40;;;4.10;99.90;;;;;;5066851;28;20622;-54
2021/01/25 04:51:42;;;;;;;1.63;0.70;;;4.10;99.90;;;;;;5063378;28;20033;-54
2021/01/25 04:54:08;;;;;;;1.10;0.50;;;4.10;99.90;;;;;;5048771;28;20032;-54
2021/01/25 04:56:35;;;;;;;0.43;0.43;;;4.10;99.90;;;;;;5068443;28;20033;-54
2021/01/25 04:59:02;;;;;;;1.98;0.52;;;4.10;99.90;;;;;;5067849;28;20104;-54
2021/01/25 05:01:28;;;;;;;0.80;0.60;;;4.00;99.90;;;;;;5058106;28;20029;-54
2021/01/25 05:03:54;;;;;;;0.90;0.50;;;4.00;99.90;;;;;;5048941;28;20029;-54
2021/01/25 05:06:20;;;;;;;0.40;0.40;;;4.00;99.90;;;;;;5060110;28;20028;-54
2021/01/25 05:08:46;;;;;;;0.40;0.40;;;4.00;99.90;;;;;;5068660;28;20028;-53
2021/01/25 05:11:19;;;;;;;2.40;0.50;;;3.90;99.90;;;;;;5068734;28;20715;-54
2021/01/25 05:13:45;;;;;;;1.17;0.50;;;3.90;99.90;;;;;;5057583;28;20033;-54
2021/01/25 05:16:30;;;;;;;1.02;0.60;;;3.90;99.90;;;;;;5048798;28;20529;-54
2021/01/25 05:18:58;;;;;;;0.93;0.60;;;3.80;99.90;;;;;;5048709;28;20044;-53
2021/01/25 05:21:51;;;;;;;0.65;0.60;;;3.70;99.90;;;;;;5056097;28;20024;-54
2021/01/25 05:24:17;;;;;;;0.63;0.45;;;3.70;99.90;;;;;;5047257;28;20091;-52
2021/01/25 05:26:53;;;;;;;2.15;0.52;;;3.70;99.90;;;;;;5030983;28;20032;-53
2021/01/25 05:29:26;;;;;;;0.50;0.38;;;3.70;99.90;;;;;;5048639;28;20094;-54
2021/01/25 05:31:54;;;;;;;0.43;0.43;;;3.80;99.90;;;;;;5048835;28;20104;-54
2021/01/25 05:34:20;;;;;;;0.77;0.50;;;3.70;99.90;;;;;;5049670;28;20033;-53
2021/01/25 05:36:47;;;;;;;0.40;0.40;;;3.70;99.90;;;;;;5059830;28;20027;-52
2021/01/25 05:39:19;;;;;;;1.38;0.30;;;3.80;99.90;;;;;;5066793;28;20033;-53
2021/01/25 05:41:56;;;;;;;1.27;0.68;;;3.80;99.90;;;;;;5066227;28;20020;-52
2021/01/25 05:44:23;;;;;;;1.27;0.50;;;3.80;99.90;;;;;;5067105;28;20087;-53
2021/01/25 05:46:50;;;;;;;0.65;0.30;;;3.80;99.90;;;;;;5066688;28;20529;-54
2021/01/25 05:49:25;;;;;;;0.90;0.43;;;3.80;99.90;;;;;;5066738;28;20068;-54
2021/01/25 05:51:54;;;;;;;0.63;0.50;;;3.80;99.90;;;;;;5065651;28;20060;-52
2021/01/25 05:54:24;;;;;;;3.20;0.65;;;3.80;99.90;;;;;;5068852;28;20094;-54
2021/01/25 05:56:52;;;;;;;0.80;0.52;;;3.80;99.90;;;;;;5066738;28;20024;-53
2021/01/25 05:59:20;;;;;;;0.93;0.68;;;3.70;99.90;;;;;;5066436;28;20024;-52
2021/01/25 06:01:49;;;;;;;1.15;0.68;;;3.80;99.90;;;;;;5066401;28;20024;-50
2021/01/25 06:04:21;;;;;;;0.98;0.65;;;3.80;99.90;;;;;;5048436;28;20460;-52
2021/01/25 06:07:11;;;;;;;0.70;0.50;;;3.70;99.90;;;;;;5066514;28;20416;-52
2021/01/25 06:09:54;;;;;;;0.93;0.50;;;3.70;99.90;;;;;;5066322;28;20027;-51
2021/01/25 06:12:37;;;;;;;1.65;0.55;;;3.70;99.90;;;;;;5067012;28;20034;-52
2021/01/25 06:15:16;;;;;;;1.33;0.57;;;3.60;99.90;;;;;;5066039;28;20419;-52
2021/01/25 06:17:45;;;;;;;1.15;0.63;;;3.70;99.90;;;;;;5066103;28;20512;-52
2021/01/25 06:20:12;;;;;;;1.90;0.60;;;3.70;99.90;;;;;;5066190;28;20028;-53
2021/01/25 06:22:38;;;;;;;0.98;0.60;;;3.80;99.90;;;;;;5066361;28;20016;-51
2021/01/25 06:25:07;;;;;;;0.82;0.40;;;3.80;99.90;;;;;;5065888;28;20047;-52
2021/01/25 06:27:32;;;;;;;1.35;0.70;;;3.90;99.90;;;;;;5066087;28;20031;-51
2021/01/25 06:30:01;;;;;;;0.70;0.60;;;4.00;99.90;;;;;;5065659;28;20032;-53
2021/01/25 06:32:32;;;;;;;1.25;0.60;;;4.00;99.90;;;;;;5066179;28;20095;-54
2021/01/25 06:35:05;;;;;;;1.35;0.60;;;3.90;99.90;;;;;;5065815;28;20035;-52
2021/01/25 06:37:34;;;;;;;1.33;0.45;;;3.90;99.90;;;;;;5065832;28;20047;-52
2021/01/25 06:40:11;;;;;;;1.35;0.60;;;3.90;99.90;;;;;;5065484;28;20047;-52
2021/01/25 06:42:42;;;;;;;1.88;0.82;;;3.90;99.90;;;;;;5065839;28;20016;-53
2021/01/25 06:45:08;;;;;;;1.35;0.90;;;3.80;99.90;;;;;;5065371;28;20494;-51
2021/01/25 06:47:36;;;;;;;0.95;0.60;;;3.70;99.90;;;;;;5065791;28;20028;-52
2021/01/25 06:50:04;;;;;;;1.48;0.65;;;3.70;99.90;;;;;;5065251;28;20029;-54
2021/01/25 06:52:31;;;;;;;1.00;0.60;;;3.80;99.90;;;;;;5065305;28;20028;-53
2021/01/25 06:55:05;;;;;;;1.00;0.60;;;3.90;99.90;;;;;;5064392;28;20040;-54
2021/01/25 06:57:35;;;;;;;;;;;3.90;99.90;;;;;;5065739;28;20020;-53
2021/01/25 07:00:06;;;;;;;1.75;0.68;;;3.80;99.90;;;;;;5064635;28;19915;-51
2021/01/25 07:02:32;;;;;;;1.13;0.90;;;3.80;99.90;;;;;;5065601;28;20025;-52
2021/01/25 07:04:58;;;;;;;1.10;0.82;;;3.60;99.90;;;;;;5065198;28;20025;-52
2021/01/25 07:07:28;;;;;;;1.42;0.90;;;3.60;99.90;;;;;;5065910;28;20060;-53
2021/01/25 07:09:55;;;;;;;2.95;0.90;;;3.60;99.90;;;;;;5065070;28;20028;-53
2021/01/25 07:12:23;;;;;;;3.58;0.95;;;3.70;99.90;;;;;;5065854;28;20046;-51
2021/01/25 07:14:49;;;;;;;3.10;1.00;;;3.60;99.90;;;;;;5064580;28;20387;-50
2021/01/25 07:17:15;;;;;;;2.13;1.20;;;3.20;99.90;;;;;;5065070;28;20047;-52
2021/01/25 07:19:42;;;;;;;1.60;0.90;;;3.10;99.90;;;;;;5065076;28;20028;-53
2021/01/25 07:22:09;;;;;;;3.17;1.13;;;3.10;99.90;;;;;;5064369;28;20029;-49
2021/01/25 07:24:37;;;;;;;2.40;0.98;;;3.10;99.90;;;;;;5065052;28;20021;-53
2021/01/25 07:27:03;;;;;;;1.08;0.70;;;3.10;99.90;;;;;;5064578;28;20056;-53
2021/01/25 07:29:29;;;;;;;1.77;0.95;;;3.10;99.90;;;;;;5064774;28;20031;-52
2021/01/25 07:31:56;;;;;;;3.65;0.70;;;3.10;99.90;;;;;;5064751;28;20103;-53
2021/01/25 07:34:23;;;;;;;1.60;0.80;;;3.20;99.90;;;;;;5065992;28;20020;-52
2021/01/25 07:36:49;;;;;;;2.33;0.90;;;3.20;99.90;;;;;;5064799;28;20032;-51
2021/01/25 07:39:16;;;;;;;1.40;0.90;;;3.30;99.90;;;;;;5064494;28;20067;-50
2021/01/25 07:41:44;;;;;;;1.48;0.90;;;3.20;99.90;;;;;;5064665;28;20021;-53
2021/01/25 07:44:11;;;;;;;1.85;0.95;;;3.30;99.90;;;;;;5064602;28;20108;-51
2021/01/25 07:46:38;;;;;;;1.38;0.82;;;3.40;99.90;;;;;;5064842;28;20043;-51
2021/01/25 07:49:05;;;;;;;1.65;0.80;;;3.50;99.90;;;;;;5064792;28;20078;-50
2021/01/25 07:51:33;;;;;;;1.95;0.90;;;3.50;99.90;;;;;;5064210;28;20035;-53
2021/01/25 07:54:00;;;;;;;2.53;1.25;;;3.60;99.90;;;;;;5064776;28;20029;-52
2021/01/25 07:56:27;;;;;;;2.25;1.08;;;3.50;99.90;;;;;;5064734;28;20102;-52
2021/01/25 07:59:10;;;;;;;1.80;1.00;;;3.40;99.90;;;;;;5064633;28;20032;-51
2021/01/25 08:01:50;;;;;;;3.08;1.45;;;3.50;99.90;;;;;;5064738;28;20021;-52
2021/01/25 08:04:21;;;;;;;2.30;1.00;;;3.50;99.90;;;;;;5064534;28;20078;-54
2021/01/25 08:06:47;;;;;;;4.18;1.88;;;3.60;99.90;;;;;;5064252;28;20056;-52
2021/01/25 08:09:18;;;;;;;7.10;1.85;;;3.50;99.90;;;;;;5064640;28;20029;-52
2021/01/25 08:11:45;;;;;;;4.20;2.08;;;3.50;99.90;;;;;;5064245;28;20425;-52
2021/01/25 08:14:15;;;;;;;6.40;2.00;;;3.40;99.90;;;;;;5064348;28;20532;-52
2021/01/25 08:16:52;;;;;;;3.28;1.83;;;3.50;99.90;;;;;;5064356;28;20533;-52
2021/01/25 08:19:43;;;;;;;5.07;2.22;;;3.60;99.90;;;;;;5064133;28;20032;-52
2021/01/25 08:22:23;;;;;;;4.28;1.80;;;3.60;99.90;;;;;;5053501;28;20041;-52
2021/01/25 08:24:56;;;;;;;3.92;1.90;;;3.70;99.90;;;;;;5064793;28;20021;-55
2021/01/25 08:27:22;;;;;;;5.68;1.77;;;3.70;99.90;;;;;;5064665;28;20024;-53
2021/01/25 08:29:56;;;;;;;2.08;1.30;;;3.60;99.90;;;;;;5064035;28;20032;-52
2021/01/25 08:32:27;;;;;;;3.33;1.75;;;3.70;99.90;;;;;;5065046;28;20025;-53
2021/01/25 08:35:01;;;;;;;1.58;1.10;;;3.80;99.90;;;;;;5064701;28;20119;-53
2021/01/25 08:37:30;;;;;;;1.58;0.90;;;3.80;99.90;;;;;;5064405;28;20036;-51
2021/01/25 08:39:57;;;;;;;1.70;0.85;;;3.90;99.90;;;;;;5064045;28;20494;-53
2021/01/25 08:42:30;;;;;;;1.73;1.00;;;3.90;99.90;;;;;;5064732;28;20478;-53
2021/01/25 08:45:02;;;;;;;2.42;1.13;;;3.80;99.90;;;;;;5063983;28;20021;-51
2021/01/25 08:47:31;;;;;;;1.55;0.80;;;3.80;99.90;;;;;;5064131;28;20563;-52
2021/01/25 08:49:57;;;;;;;1.45;1.00;;;3.80;99.90;;;;;;5063790;28;20060;-53
2021/01/25 08:52:26;;;;;;;1.77;1.08;;;3.80;99.90;;;;;;5064152;28;20585;-53
2021/01/25 08:54:52;;;;;;;2.30;1.40;;;3.90;99.90;;;;;;5064222;28;20328;-52
2021/01/25 08:57:33;;;;;;;2.88;1.40;;;3.90;99.90;;;;;;5064186;28;20017;-53
2021/01/25 09:00:16;;;;;;;3.83;1.30;;;4.00;99.90;;;;;;5063413;28;20467;-53
2021/01/25 09:02:42;;;;;;;2.75;1.08;;;4.00;99.90;;;;;;5063630;28;20082;-53
2021/01/25 09:05:09;;;;;;;3.15;1.48;;;4.00;99.90;;;;;;5063884;28;20078;-52
2021/01/25 09:07:34;;;;;;;3.30;1.50;;;4.10;99.90;;;;;;5064106;28;20513;-50
2021/01/25 09:10:00;;;;;;;1.90;1.10;;;4.10;99.90;;;;;;5063488;28;20028;-52
2021/01/25 09:12:26;;;;;;;4.05;1.52;;;4.30;99.90;;;;;;5064121;28;20375;-52
2021/01/25 09:14:51;;;;;;;3.17;1.38;;;4.30;99.90;;;;;;5064169;28;20073;-54
2021/01/25 09:17:17;;;;;;;2.03;1.27;;;4.40;99.90;;;;;;5063633;28;20452;-53
2021/01/25 09:19:43;;;;;;;3.88;2.03;;;4.40;99.90;;;;;;5066597;28;20028;-52
2021/01/25 09:22:11;;;;;;;3.08;1.60;;;4.50;99.90;;;;;;5067377;28;20028;-53
2021/01/25 09:24:40;;;;;;;4.55;1.45;;;4.50;99.90;;;;;;5067349;28;20547;-53
2021/01/25 09:27:07;;;;;;;2.78;1.17;;;4.60;99.90;;;;;;5067115;28;20035;-53
2021/01/25 09:29:34;;;;;;;3.95;1.80;;;4.50;99.90;;;;;;5067021;28;20505;-53
2021/01/25 09:32:00;;;;;;;3.90;2.17;;;4.60;99.90;;;;;;5066643;28;20043;-53
2021/01/25 09:34:25;;;;;;;6.40;2.05;;;4.60;99.90;;;;;;5067596;28;20498;-53
2021/01/25 09:36:51;;;;;;;2.63;1.50;;;4.70;99.90;;;;;;5067344;28;20104;-53
2021/01/25 09:39:18;;;;;;;2.55;1.40;;;4.60;99.90;;;;;;5067300;28;20032;-53
2021/01/25 09:41:46;;;;;;;1.88;1.20;;;4.60;99.90;;;;;;5066900;28;20533;-51
2021/01/25 09:44:13;;;;;;;2.83;1.33;;;4.50;99.90;;;;;;5065536;28;20036;-53
2021/01/25 09:46:41;;;;;;;2.85;1.20;;;4.60;99.90;;;;;;5068536;28;20115;-55
2021/01/25 09:49:09;;;;;;;3.33;1.48;;;4.50;99.90;;;;;;5066553;28;20024;-56
2021/01/25 09:51:35;;;;;;;3.15;1.30;;;4.60;99.90;;;;;;5047697;28;20028;-55
2021/01/25 09:54:01;;;;;;;2.80;1.20;;;4.50;99.90;;;;;;5048105;28;20061;-54
2021/01/25 09:56:27;;;;;;;3.35;1.17;;;4.70;99.90;;;;;;5057279;28;20052;-55
2021/01/25 09:58:53;;;;;;;2.85;1.10;;;4.60;99.90;;;;;;5067331;28;20082;-55
2021/01/25 10:01:18;;;;;;;3.88;1.55;;;4.60;99.90;;;;;;5067599;28;20490;-55
2021/01/25 10:03:44;;;;;;;4.07;1.50;;;4.70;99.90;;;;;;5066634;28;20021;-56
2021/01/25 10:06:10;;;;;;;2.58;1.15;;;4.60;99.90;;;;;;5065527;28;20082;-54
2021/01/25 10:08:36;;;;;;;1.92;0.88;;;4.60;99.90;;;;;;5066022;28;20028;-55
2021/01/25 10:11:04;;;;;;;3.00;1.25;;;4.70;99.90;;;;;;5065432;28;20070;-54
2021/01/25 10:13:29;;;;;;;3.45;1.30;;;4.60;99.90;;;;;;5063041;28;20063;-54
2021/01/25 10:15:56;;;;;;;3.20;1.15;;;4.70;99.90;;;;;;5047529;28;20029;-55
2021/01/25 10:18:21;;;;;;;3.20;1.17;;;4.70;99.90;;;;;;5066506;28;20033;-55
2021/01/25 10:20:49;;;;;;;2.72;1.27;;;4.70;99.90;;;;;;5065276;28;20556;-54
2021/01/25 10:23:14;;;;;;;4.40;1.55;;;4.70;99.90;;;;;;5065626;28;20067;-55
2021/01/25 10:25:40;;;;;;;3.03;1.50;;;4.70;99.90;;;;;;5065889;28;20507;-55
2021/01/25 10:28:05;;;;;;;2.20;1.00;;;4.70;99.90;;;;;;5064901;28;20119;-55
2021/01/25 10:30:32;;;;;;;2.13;1.20;;;4.70;99.90;;;;;;5064418;28;20032;-55
2021/01/25 10:32:59;;;;;;;1.75;0.90;;;4.70;99.90;;;;;;5065246;28;20334;-54
2021/01/25 10:35:26;;;;;;;23.20;12.68;;;4.70;99.90;;;;;;5065453;28;20454;-54
2021/01/25 10:37:52;;;;;;;16.35;8.57;;;4.70;99.90;;;;;;5065500;28;20541;-54
2021/01/25 10:40:19;;;;;;;11.13;5.45;;;4.70;99.90;;;;;;5065274;28;20123;-54
2021/01/25 10:42:45;;;;;;;6.32;4.10;;;4.70;99.90;;;;;;5064627;28;20529;-55
2021/01/25 10:45:12;;;;;;;5.05;2.97;;;4.80;99.90;;;;;;5065289;28;20043;-57
2021/01/25 10:47:38;;;;;;;5.80;2.75;;;4.90;99.90;;;;;;5065361;28;20025;-56
2021/01/25 10:50:06;;;;;;;3.78;2.15;;;4.80;99.90;;;;;;5064602;28;20036;-54
2021/01/25 10:52:33;;;;;;;4.75;1.42;;;4.80;99.90;;;;;;5046751;28;20044;-54
2021/01/25 10:55:00;;;;;;;2.40;1.27;;;4.80;99.90;;;;;;5064919;28;20499;-54
2021/01/25 10:57:25;;;;;;;2.10;1.10;;;4.90;99.90;;;;;;5063219;28;20032;-53
2021/01/25 10:59:51;;;;;;;1.77;0.77;;;5.00;99.90;;;;;;5064013;28;20020;-53
2021/01/25 11:02:19;;;;;;;2.63;1.48;;;5.00;99.90;;;;;;5064992;28;20024;-54
2021/01/25 11:04:45;;;;;;;1.83;0.98;;;4.90;99.90;;;;;;5064365;28;20028;-54
2021/01/25 11:07:12;;;;;;;3.47;1.05;;;4.90;99.90;;;;;;5064134;28;20268;-54
2021/01/25 11:09:38;;;;;;;2.35;1.30;;;5.00;99.90;;;;;;5064536;28;20521;-53
2021/01/25 11:12:04;;;;;;;1.90;1.17;;;5.00;99.90;;;;;;5062995;28;20036;-52
2021/01/25 11:14:30;;;;;;;2.08;1.42;;;5.10;99.90;;;;;;5064490;28;20569;-53
2021/01/25 11:16:56;;;;;;;2.47;1.20;;;5.20;99.90;;;;;;5064073;28;20088;-51
2021/01/25 11:19:22;;;;;;;1.45;1.00;;;5.30;99.90;;;;;;5047110;28;20103;-53
2021/01/25 11:21:48;;;;;;;3.03;0.70;;;5.30;99.90;;;;;;5063578;28;20031;-52
2021/01/25 11:24:14;;;;;;;2.70;0.95;;;5.30;99.90;;;;;;5063999;28;20029;-52
2021/01/25 11:26:40;;;;;;;1.52;0.73;;;5.30;99.90;;;;;;5063429;28;20541;-52
2021/01/25 11:29:08;;;;;;;1.42;0.70;;;5.40;99.90;;;;;;5064105;28;20052;-52
2021/01/25 11:31:34;;;;;;;2.28;0.98;;;5.40;99.90;;;;;;5063859;28;20032;-52
2021/01/25 11:34:00;;;;;;;1.35;0.60;;;5.40;99.90;;;;;;5051769;28;20459;-55
2021/01/25 11:36:26;;;;;;;2.20;0.90;;;5.50;99.90;;;;;;5063228;28;20031;-52
2021/01/25 11:38:52;;;;;;;1.20;0.75;;;5.50;99.90;;;;;;5064324;28;20047;-52
2021/01/25 11:41:18;;;;;;;3.28;1.60;;;5.50;99.90;;;;;;5063472;28;20467;-52
2021/01/25 11:43:45;;;;;;;1.05;0.85;;;5.60;99.90;;;;;;5045256;28;20036;-54
2021/01/25 11:46:12;;;;;;;2.17;0.85;;;5.70;99.90;;;;;;5061860;28;20104;-54
2021/01/25 11:48:38;;;;;;;2.22;1.48;;;5.70;99.90;;;;;;5059938;28;20032;-55
2021/01/25 11:51:04;;;;;;;1.23;0.57;;;5.70;99.90;;;;;;5064021;28;20127;-55
2021/01/25 11:53:31;;;;;;;2.50;1.10;;;5.80;99.90;;;;;;5064594;28;20033;-55
2021/01/25 11:55:56;;;;;;;2.50;0.80;;;5.70;99.90;;;;;;5064495;28;20376;-53
2021/01/25 11:58:22;;;;;;;1.23;0.93;;;5.60;99.90;;;;;;5066455;28;20050;-54
2021/01/25 12:00:48;;;;;;;2.30;1.08;;;5.40;99.90;;;;;;5065552;28;20037;-52
2021/01/25 12:03:13;;;;;;;2.47;1.30;;;5.40;99.90;;;;;;5066127;28;21119;-53
2021/01/25 12:05:39;;;;;;;2.50;1.15;;;5.40;99.90;;;;;;5065912;28;20029;-53
2021/01/25 12:08:05;;;;;;;3.95;1.08;;;5.50;99.90;;;;;;5065329;28;20474;-53
2021/01/25 12:10:30;;;;;;;2.85;1.20;;;5.40;99.90;;;;;;5065726;28;20060;-52
2021/01/25 12:12:56;;;;;;;2.10;1.45;;;5.40;99.90;;;;;;5064216;28;20449;-53
2021/01/25 12:15:22;;;;;;;4.60;1.08;;;5.40;99.90;;;;;;5065853;28;20056;-53
2021/01/25 12:17:47;;;;;;;1.73;0.63;;;5.40;99.90;;;;;;5065199;28;20086;-53
2021/01/25 12:20:14;;;;;;;1.73;0.88;;;5.50;99.90;;;;;;5051189;28;20025;-52
2021/01/25 12:22:40;;;;;;;5.35;1.60;;;5.60;99.90;;;;;;5045627;28;20056;-53
2021/01/25 12:25:06;;;;;;;2.67;0.98;;;5.60;99.90;;;;;;5045372;28;20029;-53
2021/01/25 12:27:31;;;;;;;3.83;0.70;;;5.60;99.90;;;;;;5045172;28;20025;-52
2021/01/25 12:29:57;;;;;;;4.18;1.35;;;5.60;99.90;;;;;;5045373;28;20036;-52
2021/01/25 12:32:23;;;;;;;1.88;1.10;;;5.60;99.90;;;;;;5061005;28;20028;-53
2021/01/25 12:34:50;;;;;;;0.80;0.68;;;5.70;99.90;;;;;;5066030;28;20036;-53
2021/01/25 12:37:16;;;;;;;3.20;0.88;;;5.70;99.90;;;;;;5065353;28;20021;-53
2021/01/25 12:39:42;;;;;;;3.17;1.00;;;5.70;99.90;;;;;;5064254;28;20029;-53
2021/01/25 12:42:08;;;;;;;1.50;1.10;;;5.70;99.90;;;;;;5063662;28;20028;-52
2021/01/25 12:44:35;;;;;;;2.65;1.38;;;5.70;99.90;;;;;;5064175;28;20721;-53
2021/01/25 12:47:03;;;;;;;1.92;1.20;;;5.70;99.90;;;;;;5063970;28;20111;-53
2021/01/25 12:49:29;;;;;;;1.92;0.90;;;5.70;99.90;;;;;;5064253;28;20195;-53
2021/01/25 12:51:54;;;;;;;2.00;0.88;;;5.60;99.90;;;;;;5063142;28;20108;-54
2021/01/25 12:54:21;;;;;;;2.80;0.90;;;5.70;99.90;;;;;;5067167;28;20039;-53
2021/01/25 12:56:48;;;;;;;2.38;0.70;;;5.80;99.90;;;;;;5067536;28;20414;-53
2021/01/25 12:59:15;;;;;;;2.55;0.95;;;5.90;99.90;;;;;;5067457;28;20071;-53